ARG1831 SAVC-SABE
Flight info
| Callsign | ARG1831 |
|---|---|
| Flight time | 1h 57m |
| Altitude | 37000 |
| Route | GATUD2G GATUD UP664 TRE UT693 BCA UW22 VALOS VALOS9Q |
| Aircraft | B738/M-MSDFGHILRVWS/LB1 |
Departure
| Time | 2026-04-25 20:56 |
|---|---|
| Airport | General Enrique Mosconi International Airport (SAVC) |
Arrival
| Time | 2026-04-25 22:53 |
|---|---|
| Airport | Aeroparque Jorge Newbery (SABE) |
| Time | Latitude | Longitude | Altitude | Speed | Heading |
|---|---|---|---|---|---|
| 2026-04-25 20:08 | -45.78948 | -67.46820 | 195 ft | 0 kts | 221° |
| 2026-04-25 20:47 | -45.78947 | -67.46818 | 195 ft | 2 kts | 221° |
| 2026-04-25 20:47 | -45.78932 | -67.46809 | 209 ft | 2 kts | 176° |
| 2026-04-25 20:48 | -45.78918 | -67.46819 | 206 ft | 2 kts | 122° |
| 2026-04-25 20:48 | -45.78912 | -67.46837 | 205 ft | 1 kts | 97° |
| 2026-04-25 20:48 | -45.78912 | -67.46841 | 208 ft | 0 kts | 93° |
| 2026-04-25 20:51 | -45.78909 | -67.46821 | 207 ft | 6 kts | 70° |
| 2026-04-25 20:51 | -45.78851 | -67.46799 | 204 ft | 14 kts | 358° |
| 2026-04-25 20:51 | -45.78765 | -67.46793 | 206 ft | 11 kts | 30° |
| 2026-04-25 20:52 | -45.78742 | -67.46687 | 204 ft | 13 kts | 79° |
| 2026-04-25 20:52 | -45.78729 | -67.46585 | 195 ft | 19 kts | 79° |
| 2026-04-25 20:52 | -45.78689 | -67.46289 | 201 ft | 24 kts | 79° |
| 2026-04-25 20:52 | -45.78659 | -67.46062 | 195 ft | 23 kts | 79° |
| 2026-04-25 20:53 | -45.78631 | -67.45843 | 200 ft | 22 kts | 79° |
| 2026-04-25 20:53 | -45.78603 | -67.45630 | 202 ft | 21 kts | 79° |
| 2026-04-25 20:53 | -45.78576 | -67.45426 | 200 ft | 21 kts | 79° |
| 2026-04-25 20:53 | -45.78549 | -67.45225 | 206 ft | 20 kts | 79° |
| 2026-04-25 20:54 | -45.78524 | -67.45032 | 195 ft | 19 kts | 79° |
| 2026-04-25 20:54 | -45.78496 | -67.44890 | 208 ft | 13 kts | 50° |
| 2026-04-25 20:54 | -45.78433 | -67.44848 | 211 ft | 7 kts | 20° |
| 2026-04-25 20:54 | -45.78383 | -67.44834 | 202 ft | 8 kts | 359° |
| 2026-04-25 20:55 | -45.78329 | -67.44846 | 194 ft | 8 kts | 339° |
| 2026-04-25 20:55 | -45.78311 | -67.44945 | 195 ft | 24 kts | 261° |
| 2026-04-25 20:55 | -45.78392 | -67.45556 | 209 ft | 99 kts | 259° |
| 2026-04-25 20:55 | -45.78556 | -67.46779 | 361 ft | 143 kts | 256° |
| 2026-04-25 20:56 | -45.78744 | -67.48197 | 1165 ft | 147 kts | 253° |
| 2026-04-25 20:56 | -45.79069 | -67.49566 | 1944 ft | 152 kts | 233° |
| 2026-04-25 20:56 | -45.79620 | -67.51047 | 2287 ft | 185 kts | 235° |
| 2026-04-25 20:56 | -45.80229 | -67.52794 | 2719 ft | 202 kts | 237° |
| 2026-04-25 20:57 | -45.80852 | -67.54622 | 3495 ft | 207 kts | 237° |
| 2026-04-25 20:57 | -45.81481 | -67.56480 | 4433 ft | 209 kts | 237° |
| 2026-04-25 20:57 | -45.82114 | -67.58341 | 5386 ft | 207 kts | 238° |
| 2026-04-25 20:57 | -45.82621 | -67.60318 | 6153 ft | 220 kts | 257° |
| 2026-04-25 20:58 | -45.82473 | -67.62515 | 7026 ft | 234 kts | 281° |
| 2026-04-25 20:58 | -45.81730 | -67.64646 | 7956 ft | 243 kts | 293° |
| 2026-04-25 20:58 | -45.80827 | -67.66709 | 8894 ft | 245 kts | 295° |
| 2026-04-25 20:58 | -45.79899 | -67.68767 | 9797 ft | 247 kts | 296° |
| 2026-04-25 20:59 | -45.78906 | -67.70778 | 10645 ft | 253 kts | 308° |
| 2026-04-25 20:59 | -45.77351 | -67.72078 | 11489 ft | 269 kts | 339° |
| 2026-04-25 20:59 | -45.75522 | -67.72654 | 12413 ft | 270 kts | 343° |
| 2026-04-25 20:59 | -45.73694 | -67.73173 | 13265 ft | 273 kts | 346° |
| 2026-04-25 21:00 | -45.71763 | -67.73039 | 14059 ft | 285 kts | 9° |
| 2026-04-25 21:00 | -45.71114 | -67.72769 | 14242 ft | 292 kts | 16° |
| 2026-04-25 21:00 | -45.65990 | -67.68148 | 14866 ft | 360 kts | 32° |
| 2026-04-25 21:01 | -45.63887 | -67.66047 | 15240 ft | 376 kts | 32° |
| 2026-04-25 21:01 | -45.61717 | -67.63901 | 15901 ft | 382 kts | 31° |
| 2026-04-25 21:01 | -45.59521 | -67.61752 | 16728 ft | 384 kts | 31° |
| 2026-04-25 21:01 | -45.57302 | -67.59601 | 17475 ft | 388 kts | 30° |
| 2026-04-25 21:02 | -45.55053 | -67.57433 | 18186 ft | 392 kts | 30° |
| 2026-04-25 21:02 | -45.52814 | -67.55278 | 18887 ft | 393 kts | 30° |
| 2026-04-25 21:02 | -45.50542 | -67.53096 | 19604 ft | 395 kts | 30° |
| 2026-04-25 21:02 | -45.48252 | -67.50901 | 20276 ft | 398 kts | 30° |
| 2026-04-25 21:03 | -45.45949 | -67.48697 | 20946 ft | 400 kts | 30° |
| 2026-04-25 21:03 | -45.43632 | -67.46482 | 21610 ft | 403 kts | 30° |
| 2026-04-25 21:03 | -45.41299 | -67.44252 | 22249 ft | 405 kts | 30° |
| 2026-04-25 21:03 | -45.38949 | -67.42006 | 22878 ft | 408 kts | 30° |
| 2026-04-25 21:04 | -45.36583 | -67.39748 | 23458 ft | 411 kts | 29° |
| 2026-04-25 21:04 | -45.34201 | -67.37477 | 23956 ft | 414 kts | 29° |
| 2026-04-25 21:04 | -45.31829 | -67.35217 | 24440 ft | 417 kts | 29° |
| 2026-04-25 21:04 | -45.29407 | -67.32912 | 24902 ft | 420 kts | 28° |
| 2026-04-25 21:05 | -45.26971 | -67.30594 | 25383 ft | 423 kts | 28° |
| 2026-04-25 21:05 | -45.24514 | -67.28260 | 25853 ft | 426 kts | 28° |
| 2026-04-25 21:05 | -45.22045 | -67.25916 | 26314 ft | 429 kts | 28° |
| 2026-04-25 21:05 | -45.19556 | -67.23558 | 26764 ft | 431 kts | 28° |
| 2026-04-25 21:06 | -45.17054 | -67.21192 | 27207 ft | 434 kts | 28° |
| 2026-04-25 21:06 | -45.14535 | -67.18813 | 27630 ft | 437 kts | 27° |
| 2026-04-25 21:06 | -45.11996 | -67.16417 | 28052 ft | 439 kts | 27° |
| 2026-04-25 21:06 | -45.10308 | -67.14825 | 28325 ft | 441 kts | 27° |
| 2026-04-25 21:07 | -45.06913 | -67.11625 | 28865 ft | 445 kts | 27° |
| 2026-04-25 21:07 | -45.04334 | -67.09197 | 29260 ft | 447 kts | 27° |
| 2026-04-25 21:07 | -45.01735 | -67.06752 | 29641 ft | 450 kts | 27° |
| 2026-04-25 21:07 | -44.99122 | -67.04296 | 29948 ft | 452 kts | 27° |
| 2026-04-25 21:08 | -44.96497 | -67.01832 | 30194 ft | 456 kts | 27° |
| 2026-04-25 21:08 | -44.93845 | -66.99344 | 30432 ft | 459 kts | 27° |
| 2026-04-25 21:08 | -44.91173 | -66.96843 | 30682 ft | 462 kts | 27° |
| 2026-04-25 21:08 | -44.88490 | -66.94334 | 30927 ft | 465 kts | 27° |
| 2026-04-25 21:09 | -44.83098 | -66.89307 | 31430 ft | 470 kts | 28° |
| 2026-04-25 21:09 | -44.80371 | -66.86767 | 31781 ft | 470 kts | 28° |
| 2026-04-25 21:09 | -44.77648 | -66.84232 | 32132 ft | 470 kts | 28° |
| 2026-04-25 21:10 | -44.74918 | -66.81693 | 32422 ft | 471 kts | 28° |
| 2026-04-25 21:10 | -44.72179 | -66.79150 | 32707 ft | 473 kts | 28° |
| 2026-04-25 21:10 | -44.69429 | -66.76599 | 33006 ft | 473 kts | 28° |
| 2026-04-25 21:10 | -44.66683 | -66.74055 | 33327 ft | 474 kts | 28° |
| 2026-04-25 21:11 | -44.63963 | -66.71537 | 33608 ft | 475 kts | 28° |
| 2026-04-25 21:11 | -44.61197 | -66.68981 | 33816 ft | 477 kts | 28° |
| 2026-04-25 21:11 | -44.58418 | -66.66416 | 34031 ft | 479 kts | 28° |
| 2026-04-25 21:11 | -44.55636 | -66.63850 | 34258 ft | 480 kts | 28° |
| 2026-04-25 21:12 | -44.52842 | -66.61276 | 34475 ft | 481 kts | 28° |
| 2026-04-25 21:12 | -44.50038 | -66.58697 | 34667 ft | 483 kts | 28° |
| 2026-04-25 21:12 | -44.47231 | -66.56117 | 34881 ft | 484 kts | 28° |
| 2026-04-25 21:12 | -44.45363 | -66.54402 | 35029 ft | 484 kts | 28° |
| 2026-04-25 21:13 | -44.41624 | -66.50972 | 35301 ft | 486 kts | 28° |
| 2026-04-25 21:13 | -44.38794 | -66.48380 | 35494 ft | 488 kts | 28° |
| 2026-04-25 21:13 | -44.35949 | -66.45778 | 35683 ft | 489 kts | 28° |
| 2026-04-25 21:13 | -44.33101 | -66.43175 | 35893 ft | 490 kts | 28° |
| 2026-04-25 21:14 | -44.30246 | -66.40569 | 36107 ft | 491 kts | 29° |
| 2026-04-25 21:14 | -44.27387 | -66.37962 | 36303 ft | 492 kts | 29° |
| 2026-04-25 21:14 | -44.24519 | -66.35350 | 36490 ft | 493 kts | 29° |
| 2026-04-25 21:14 | -44.21648 | -66.32737 | 36662 ft | 494 kts | 29° |
| 2026-04-25 21:15 | -44.16004 | -66.27210 | 36646 ft | 501 kts | 43° |
| 2026-04-25 21:15 | -44.13908 | -66.23426 | 36689 ft | 503 kts | 58° |
| 2026-04-25 21:15 | -44.12193 | -66.19185 | 36678 ft | 503 kts | 60° |
| 2026-04-25 21:16 | -44.08852 | -66.10619 | 36680 ft | 503 kts | 60° |
| 2026-04-25 21:16 | -44.05428 | -66.02139 | 36678 ft | 503 kts | 59° |
| 2026-04-25 21:17 | -44.01954 | -65.93710 | 36681 ft | 503 kts | 59° |
| 2026-04-25 21:17 | -43.97640 | -65.86257 | 36691 ft | 492 kts | 32° |
| 2026-04-25 21:18 | -43.91835 | -65.81488 | 36692 ft | 488 kts | 25° |
| 2026-04-25 21:18 | -43.85920 | -65.76886 | 36689 ft | 488 kts | 25° |
| 2026-04-25 21:19 | -43.80025 | -65.72212 | 36693 ft | 488 kts | 26° |
| 2026-04-25 21:19 | -43.74153 | -65.67499 | 36704 ft | 488 kts | 26° |
| 2026-04-25 21:20 | -43.69277 | -65.63581 | 36704 ft | 488 kts | 26° |
| 2026-04-25 21:20 | -43.62457 | -65.58118 | 36709 ft | 487 kts | 26° |
| 2026-04-25 21:21 | -43.56598 | -65.53442 | 36714 ft | 486 kts | 26° |
| 2026-04-25 21:21 | -43.50742 | -65.48778 | 36721 ft | 485 kts | 26° |
| 2026-04-25 21:22 | -43.44940 | -65.44168 | 36743 ft | 485 kts | 26° |
| 2026-04-25 21:22 | -43.39101 | -65.39539 | 36769 ft | 484 kts | 26° |
| 2026-04-25 21:23 | -43.33272 | -65.34928 | 36787 ft | 483 kts | 26° |
| 2026-04-25 21:23 | -43.27448 | -65.30330 | 36796 ft | 482 kts | 26° |
| 2026-04-25 21:24 | -43.21633 | -65.25750 | 36797 ft | 482 kts | 26° |
| 2026-04-25 21:24 | -43.15831 | -65.21312 | 36797 ft | 480 kts | 24° |
| 2026-04-25 21:25 | -43.09944 | -65.17013 | 36792 ft | 479 kts | 24° |
| 2026-04-25 21:25 | -43.04055 | -65.12724 | 36780 ft | 479 kts | 24° |
| 2026-04-25 21:26 | -42.98178 | -65.08423 | 36765 ft | 479 kts | 24° |
| 2026-04-25 21:26 | -42.92338 | -65.04144 | 36758 ft | 479 kts | 24° |
| 2026-04-25 21:27 | -42.86464 | -64.99848 | 36753 ft | 480 kts | 24° |
| 2026-04-25 21:27 | -42.80578 | -64.95555 | 36758 ft | 480 kts | 24° |
| 2026-04-25 21:28 | -42.74686 | -64.91267 | 36765 ft | 480 kts | 24° |
| 2026-04-25 21:28 | -42.68840 | -64.87022 | 36766 ft | 480 kts | 24° |
| 2026-04-25 21:29 | -42.62948 | -64.82753 | 36766 ft | 480 kts | 24° |
| 2026-04-25 21:29 | -42.57055 | -64.78491 | 36768 ft | 480 kts | 24° |
| 2026-04-25 21:30 | -42.51164 | -64.74240 | 36775 ft | 479 kts | 24° |
| 2026-04-25 21:30 | -42.46270 | -64.70716 | 36785 ft | 479 kts | 24° |
| 2026-04-25 21:31 | -42.39435 | -64.65803 | 36787 ft | 478 kts | 24° |
| 2026-04-25 21:31 | -42.33538 | -64.61641 | 36777 ft | 477 kts | 22° |
| 2026-04-25 21:32 | -42.27616 | -64.57586 | 36786 ft | 477 kts | 22° |
| 2026-04-25 21:32 | -42.21699 | -64.53547 | 36789 ft | 477 kts | 22° |
| 2026-04-25 21:33 | -42.15778 | -64.49497 | 36797 ft | 477 kts | 22° |
| 2026-04-25 21:33 | -42.09905 | -64.45479 | 36802 ft | 477 kts | 22° |
| 2026-04-25 21:34 | -42.03984 | -64.41435 | 36807 ft | 477 kts | 22° |
| 2026-04-25 21:34 | -41.98060 | -64.37398 | 36807 ft | 478 kts | 22° |
| 2026-04-25 21:35 | -41.92125 | -64.33363 | 36809 ft | 478 kts | 22° |
| 2026-04-25 21:35 | -41.86230 | -64.29363 | 36814 ft | 478 kts | 22° |
| 2026-04-25 21:36 | -41.80280 | -64.25335 | 36819 ft | 479 kts | 22° |
| 2026-04-25 21:36 | -41.74335 | -64.21317 | 36824 ft | 479 kts | 21° |
| 2026-04-25 21:37 | -41.69385 | -64.17979 | 36825 ft | 479 kts | 21° |
| 2026-04-25 21:37 | -41.62472 | -64.13327 | 36830 ft | 479 kts | 21° |
| 2026-04-25 21:38 | -41.56523 | -64.09332 | 36835 ft | 478 kts | 21° |
| 2026-04-25 21:38 | -41.50582 | -64.05351 | 36837 ft | 477 kts | 21° |
| 2026-04-25 21:39 | -41.44651 | -64.01385 | 36840 ft | 476 kts | 21° |
| 2026-04-25 21:39 | -41.38732 | -63.97434 | 36842 ft | 476 kts | 21° |
| 2026-04-25 21:40 | -41.32856 | -63.93521 | 36846 ft | 475 kts | 21° |
| 2026-04-25 21:40 | -41.26955 | -63.89599 | 36848 ft | 474 kts | 21° |
| 2026-04-25 21:41 | -41.21061 | -63.85690 | 36857 ft | 473 kts | 21° |
| 2026-04-25 21:41 | -41.15179 | -63.81796 | 36862 ft | 472 kts | 21° |
| 2026-04-25 21:42 | -41.09298 | -63.77911 | 36863 ft | 472 kts | 21° |
| 2026-04-25 21:42 | -41.03456 | -63.74059 | 36871 ft | 472 kts | 21° |
| 2026-04-25 21:43 | -40.97577 | -63.70190 | 36871 ft | 472 kts | 21° |
| 2026-04-25 21:43 | -40.91693 | -63.66325 | 36873 ft | 473 kts | 21° |
| 2026-04-25 21:44 | -40.85854 | -63.62282 | 36871 ft | 475 kts | 23° |
| 2026-04-25 21:45 | -40.77213 | -63.55952 | 36883 ft | 476 kts | 23° |
| 2026-04-25 21:45 | -40.71403 | -63.51735 | 36878 ft | 477 kts | 23° |
| 2026-04-25 21:46 | -40.65571 | -63.47542 | 36882 ft | 478 kts | 23° |
| 2026-04-25 21:46 | -40.59731 | -63.43360 | 36882 ft | 478 kts | 22° |
| 2026-04-25 21:47 | -40.53918 | -63.39206 | 36881 ft | 479 kts | 22° |
| 2026-04-25 21:47 | -40.48056 | -63.35023 | 36888 ft | 480 kts | 22° |
| 2026-04-25 21:48 | -40.42189 | -63.30844 | 36886 ft | 480 kts | 22° |
| 2026-04-25 21:48 | -40.36318 | -63.26671 | 36892 ft | 480 kts | 22° |
| 2026-04-25 21:49 | -40.30446 | -63.22506 | 36889 ft | 480 kts | 22° |
| 2026-04-25 21:49 | -40.24611 | -63.18375 | 36894 ft | 480 kts | 22° |
| 2026-04-25 21:50 | -40.18742 | -63.14228 | 36888 ft | 479 kts | 22° |
| 2026-04-25 21:50 | -40.12873 | -63.10090 | 36886 ft | 479 kts | 22° |
| 2026-04-25 21:51 | -40.07001 | -63.05957 | 36903 ft | 479 kts | 22° |
| 2026-04-25 21:51 | -40.01136 | -63.01838 | 36896 ft | 479 kts | 22° |
| 2026-04-25 21:52 | -39.95306 | -62.97751 | 36898 ft | 479 kts | 22° |
| 2026-04-25 21:52 | -39.89435 | -62.93644 | 36906 ft | 479 kts | 22° |
| 2026-04-25 21:53 | -39.83567 | -62.89546 | 36905 ft | 479 kts | 22° |
| 2026-04-25 21:53 | -39.77700 | -62.85457 | 36903 ft | 479 kts | 22° |
| 2026-04-25 21:54 | -39.71865 | -62.81399 | 36910 ft | 479 kts | 22° |
| 2026-04-25 21:54 | -39.65996 | -62.77324 | 36904 ft | 479 kts | 22° |
| 2026-04-25 21:55 | -39.60119 | -62.73251 | 36908 ft | 478 kts | 22° |
| 2026-04-25 21:55 | -39.54250 | -62.69191 | 36906 ft | 478 kts | 21° |
| 2026-04-25 21:56 | -39.48367 | -62.65156 | 36902 ft | 478 kts | 21° |
| 2026-04-25 21:56 | -39.42480 | -62.61302 | 36898 ft | 477 kts | 20° |
| 2026-04-25 21:57 | -39.36539 | -62.57462 | 36901 ft | 477 kts | 20° |
| 2026-04-25 21:57 | -39.30608 | -62.53614 | 36904 ft | 477 kts | 20° |
| 2026-04-25 21:58 | -39.24675 | -62.49757 | 36903 ft | 477 kts | 20° |
| 2026-04-25 21:58 | -39.18783 | -62.45929 | 36894 ft | 477 kts | 20° |
| 2026-04-25 21:59 | -39.12846 | -62.42081 | 36902 ft | 477 kts | 20° |
| 2026-04-25 21:59 | -39.06913 | -62.38242 | 36897 ft | 477 kts | 20° |
| 2026-04-25 22:00 | -38.98012 | -62.32498 | 36900 ft | 477 kts | 20° |
| 2026-04-25 22:00 | -38.92119 | -62.28704 | 36901 ft | 477 kts | 20° |
| 2026-04-25 22:01 | -38.86184 | -62.24889 | 36908 ft | 477 kts | 20° |
| 2026-04-25 22:01 | -38.81256 | -62.21728 | 36907 ft | 477 kts | 20° |
| 2026-04-25 22:02 | -38.74359 | -62.17310 | 36909 ft | 476 kts | 20° |
| 2026-04-25 22:02 | -38.68616 | -62.12985 | 36917 ft | 483 kts | 29° |
| 2026-04-25 22:03 | -38.63157 | -62.07937 | 36899 ft | 484 kts | 30° |
| 2026-04-25 22:03 | -38.57709 | -62.02868 | 36907 ft | 484 kts | 30° |
| 2026-04-25 22:04 | -38.52243 | -61.97878 | 36900 ft | 483 kts | 29° |
| 2026-04-25 22:04 | -38.46802 | -61.92964 | 36906 ft | 482 kts | 29° |
| 2026-04-25 22:05 | -38.41327 | -61.88035 | 36908 ft | 481 kts | 28° |
| 2026-04-25 22:05 | -38.35854 | -61.83113 | 36907 ft | 481 kts | 28° |
| 2026-04-25 22:06 | -38.30391 | -61.78207 | 36909 ft | 480 kts | 28° |
| 2026-04-25 22:06 | -38.24962 | -61.73340 | 36917 ft | 480 kts | 28° |
| 2026-04-25 22:07 | -38.20421 | -61.69277 | 36908 ft | 480 kts | 28° |
| 2026-04-25 22:07 | -38.14036 | -61.63573 | 36917 ft | 480 kts | 28° |
| 2026-04-25 22:08 | -38.08576 | -61.58706 | 36910 ft | 479 kts | 28° |
| 2026-04-25 22:08 | -38.03149 | -61.53875 | 36911 ft | 480 kts | 28° |
| 2026-04-25 22:09 | -37.97686 | -61.49022 | 36914 ft | 479 kts | 28° |
| 2026-04-25 22:09 | -37.92222 | -61.44181 | 36920 ft | 479 kts | 28° |
| 2026-04-25 22:10 | -37.86760 | -61.39352 | 36918 ft | 479 kts | 28° |
| 2026-04-25 22:10 | -37.81329 | -61.34557 | 36920 ft | 479 kts | 27° |
| 2026-04-25 22:11 | -37.75859 | -61.29735 | 36918 ft | 479 kts | 27° |
| 2026-04-25 22:11 | -37.70392 | -61.24924 | 36916 ft | 479 kts | 27° |
| 2026-04-25 22:12 | -37.64917 | -61.20114 | 36917 ft | 479 kts | 27° |
| 2026-04-25 22:12 | -37.60365 | -61.16123 | 36918 ft | 479 kts | 27° |
| 2026-04-25 22:13 | -37.54002 | -61.10554 | 36920 ft | 479 kts | 27° |
| 2026-04-25 22:13 | -37.48520 | -61.05765 | 36926 ft | 479 kts | 27° |
| 2026-04-25 22:14 | -37.43037 | -61.00984 | 36922 ft | 479 kts | 27° |
| 2026-04-25 22:14 | -37.37554 | -60.96212 | 36926 ft | 479 kts | 27° |
| 2026-04-25 22:15 | -37.32102 | -60.91475 | 36925 ft | 479 kts | 27° |
| 2026-04-25 22:16 | -37.23871 | -60.84339 | 36923 ft | 479 kts | 27° |
| 2026-04-25 22:16 | -37.18377 | -60.79587 | 36929 ft | 479 kts | 26° |
| 2026-04-25 22:17 | -37.12883 | -60.74843 | 36933 ft | 479 kts | 26° |
| 2026-04-25 22:17 | -37.07426 | -60.70140 | 36934 ft | 479 kts | 26° |
| 2026-04-25 22:18 | -37.01928 | -60.65410 | 36930 ft | 480 kts | 26° |
| 2026-04-25 22:18 | -36.96429 | -60.60688 | 36935 ft | 480 kts | 26° |
| 2026-04-25 22:19 | -36.90926 | -60.55970 | 36931 ft | 480 kts | 26° |
| 2026-04-25 22:19 | -36.85455 | -60.51288 | 36941 ft | 480 kts | 26° |
| 2026-04-25 22:20 | -36.79947 | -60.46582 | 36938 ft | 480 kts | 26° |
| 2026-04-25 22:20 | -36.74433 | -60.41878 | 36942 ft | 480 kts | 26° |
| 2026-04-25 22:21 | -36.68915 | -60.37194 | 36938 ft | 480 kts | 26° |
| 2026-04-25 22:21 | -36.63420 | -60.32559 | 36946 ft | 480 kts | 26° |
| 2026-04-25 22:22 | -36.57890 | -60.27898 | 36942 ft | 480 kts | 26° |
| 2026-04-25 22:22 | -36.52352 | -60.23235 | 36943 ft | 481 kts | 26° |
| 2026-04-25 22:23 | -36.46813 | -60.18583 | 36941 ft | 481 kts | 25° |
| 2026-04-25 22:23 | -36.41270 | -60.13937 | 36947 ft | 481 kts | 25° |
| 2026-04-25 22:24 | -36.35762 | -60.09326 | 36947 ft | 481 kts | 25° |
| 2026-04-25 22:24 | -36.30214 | -60.04688 | 36952 ft | 481 kts | 25° |
| 2026-04-25 22:25 | -36.24656 | -60.00051 | 36948 ft | 481 kts | 25° |
| 2026-04-25 22:25 | -36.19330 | -59.95614 | 36937 ft | 479 kts | 25° |
| 2026-04-25 22:25 | -36.16644 | -59.93368 | 36937 ft | 464 kts | 25° |
| 2026-04-25 22:26 | -36.13989 | -59.91151 | 36878 ft | 461 kts | 25° |
| 2026-04-25 22:26 | -36.11319 | -59.88937 | 36254 ft | 464 kts | 25° |
| 2026-04-25 22:26 | -36.08618 | -59.86707 | 35326 ft | 472 kts | 25° |
| 2026-04-25 22:26 | -36.05859 | -59.84434 | 34411 ft | 481 kts | 26° |
| 2026-04-25 22:27 | -36.03065 | -59.82129 | 33583 ft | 485 kts | 26° |
| 2026-04-25 22:27 | -36.00263 | -59.79807 | 32954 ft | 482 kts | 27° |
| 2026-04-25 22:27 | -35.97494 | -59.77508 | 32495 ft | 476 kts | 27° |
| 2026-04-25 22:27 | -35.94763 | -59.75242 | 32041 ft | 471 kts | 27° |
| 2026-04-25 22:28 | -35.92053 | -59.72999 | 31408 ft | 469 kts | 27° |
| 2026-04-25 22:28 | -35.89390 | -59.70801 | 30919 ft | 461 kts | 27° |
| 2026-04-25 22:28 | -35.86759 | -59.68626 | 30488 ft | 449 kts | 27° |
| 2026-04-25 22:28 | -35.84192 | -59.66508 | 30057 ft | 439 kts | 27° |
| 2026-04-25 22:29 | -35.81682 | -59.64440 | 29576 ft | 429 kts | 27° |
| 2026-04-25 22:29 | -35.79230 | -59.62423 | 29166 ft | 418 kts | 27° |
| 2026-04-25 22:29 | -35.76838 | -59.60457 | 28742 ft | 409 kts | 27° |
| 2026-04-25 22:30 | -35.72199 | -59.56652 | 27930 ft | 393 kts | 27° |
| 2026-04-25 22:30 | -35.69927 | -59.54794 | 27547 ft | 394 kts | 27° |
| 2026-04-25 22:30 | -35.67635 | -59.52928 | 27157 ft | 407 kts | 27° |
| 2026-04-25 22:30 | -35.66027 | -59.51620 | 26878 ft | 412 kts | 27° |
| 2026-04-25 22:31 | -35.62911 | -59.49067 | 26278 ft | 400 kts | 27° |
| 2026-04-25 22:31 | -35.60620 | -59.47186 | 25873 ft | 391 kts | 27° |
| 2026-04-25 22:31 | -35.58382 | -59.45352 | 25481 ft | 383 kts | 27° |
| 2026-04-25 22:31 | -35.56162 | -59.43540 | 25107 ft | 382 kts | 27° |
| 2026-04-25 22:32 | -35.53945 | -59.41735 | 24714 ft | 383 kts | 27° |
| 2026-04-25 22:32 | -35.51702 | -59.39911 | 24337 ft | 390 kts | 27° |
| 2026-04-25 22:32 | -35.49431 | -59.38062 | 23942 ft | 392 kts | 27° |
| 2026-04-25 22:32 | -35.47190 | -59.36235 | 23534 ft | 390 kts | 28° |
| 2026-04-25 22:33 | -35.44937 | -59.34410 | 23051 ft | 387 kts | 27° |
| 2026-04-25 22:33 | -35.42665 | -59.32673 | 22631 ft | 383 kts | 25° |
| 2026-04-25 22:33 | -35.40397 | -59.30994 | 22225 ft | 379 kts | 25° |
| 2026-04-25 22:33 | -35.38148 | -59.29341 | 21834 ft | 375 kts | 25° |
| 2026-04-25 22:34 | -35.35918 | -59.27698 | 21432 ft | 372 kts | 25° |
| 2026-04-25 22:34 | -35.33713 | -59.26064 | 21051 ft | 369 kts | 25° |
| 2026-04-25 22:34 | -35.31524 | -59.24439 | 20662 ft | 367 kts | 25° |
| 2026-04-25 22:34 | -35.29381 | -59.22844 | 20281 ft | 364 kts | 25° |
| 2026-04-25 22:35 | -35.27225 | -59.21240 | 19896 ft | 362 kts | 25° |
| 2026-04-25 22:35 | -35.25083 | -59.19646 | 19525 ft | 359 kts | 25° |
| 2026-04-25 22:35 | -35.22955 | -59.18063 | 19152 ft | 357 kts | 25° |
| 2026-04-25 22:35 | -35.20837 | -59.16490 | 18779 ft | 355 kts | 25° |
| 2026-04-25 22:36 | -35.18714 | -59.14986 | 18523 ft | 348 kts | 22° |
| 2026-04-25 22:36 | -35.16586 | -59.13638 | 18229 ft | 343 kts | 20° |
| 2026-04-25 22:36 | -35.14456 | -59.12345 | 17838 ft | 341 kts | 20° |
| 2026-04-25 22:36 | -35.12338 | -59.11066 | 17451 ft | 339 kts | 20° |
| 2026-04-25 22:37 | -35.10230 | -59.09785 | 17065 ft | 337 kts | 21° |
| 2026-04-25 22:37 | -35.08166 | -59.08522 | 16693 ft | 336 kts | 21° |
| 2026-04-25 22:37 | -35.06087 | -59.07243 | 16315 ft | 334 kts | 21° |
| 2026-04-25 22:37 | -35.04016 | -59.05966 | 15943 ft | 333 kts | 21° |
| 2026-04-25 22:38 | -35.01951 | -59.04691 | 15561 ft | 332 kts | 22° |
| 2026-04-25 22:38 | -34.99896 | -59.03422 | 15105 ft | 330 kts | 23° |
| 2026-04-25 22:38 | -34.97855 | -59.02163 | 14782 ft | 328 kts | 23° |
| 2026-04-25 22:38 | -34.95825 | -59.00908 | 14423 ft | 326 kts | 24° |
| 2026-04-25 22:39 | -34.93802 | -58.99660 | 14066 ft | 325 kts | 24° |
| 2026-04-25 22:39 | -34.92464 | -58.98835 | 13818 ft | 325 kts | 24° |
| 2026-04-25 22:39 | -34.90446 | -58.97594 | 13401 ft | 325 kts | 23° |
| 2026-04-25 22:39 | -34.87741 | -58.96075 | 12887 ft | 322 kts | 21° |
| 2026-04-25 22:40 | -34.85693 | -58.94980 | 12512 ft | 321 kts | 21° |
| 2026-04-25 22:40 | -34.83654 | -58.93890 | 12146 ft | 319 kts | 21° |
| 2026-04-25 22:40 | -34.81627 | -58.92796 | 11774 ft | 318 kts | 21° |
| 2026-04-25 22:40 | -34.79611 | -58.91701 | 11410 ft | 316 kts | 21° |
| 2026-04-25 22:41 | -34.78284 | -58.90980 | 11180 ft | 316 kts | 21° |
| 2026-04-25 22:41 | -34.76283 | -58.89890 | 10824 ft | 314 kts | 21° |
| 2026-04-25 22:41 | -34.73623 | -58.88445 | 10360 ft | 312 kts | 21° |
| 2026-04-25 22:41 | -34.71689 | -58.87396 | 10228 ft | 303 kts | 21° |
| 2026-04-25 22:42 | -34.69790 | -58.86365 | 10081 ft | 295 kts | 21° |
| 2026-04-25 22:42 | -34.67938 | -58.85362 | 9919 ft | 288 kts | 21° |
| 2026-04-25 22:42 | -34.66699 | -58.84691 | 9703 ft | 288 kts | 21° |
| 2026-04-25 22:42 | -34.64285 | -58.83385 | 9297 ft | 286 kts | 21° |
| 2026-04-25 22:43 | -34.63086 | -58.82736 | 9091 ft | 285 kts | 22° |
| 2026-04-25 22:43 | -34.61282 | -58.81761 | 8805 ft | 283 kts | 22° |
| 2026-04-25 22:43 | -34.59490 | -58.80792 | 8507 ft | 281 kts | 22° |
| 2026-04-25 22:43 | -34.57707 | -58.79828 | 8194 ft | 280 kts | 22° |
| 2026-04-25 22:44 | -34.55907 | -58.78963 | 7899 ft | 276 kts | 11° |
| 2026-04-25 22:44 | -34.54038 | -58.78620 | 7714 ft | 269 kts | 3° |
| 2026-04-25 22:44 | -34.51574 | -58.78387 | 7351 ft | 267 kts | 2° |
| 2026-04-25 22:44 | -34.50349 | -58.78277 | 7169 ft | 266 kts | 2° |
| 2026-04-25 22:45 | -34.48507 | -58.78097 | 6895 ft | 265 kts | 3° |
| 2026-04-25 22:45 | -34.46675 | -58.77899 | 6615 ft | 264 kts | 4° |
| 2026-04-25 22:45 | -34.44845 | -58.77690 | 6329 ft | 263 kts | 4° |
| 2026-04-25 22:45 | -34.43028 | -58.77477 | 6050 ft | 262 kts | 4° |
| 2026-04-25 22:46 | -34.41215 | -58.77262 | 5760 ft | 261 kts | 4° |
| 2026-04-25 22:46 | -34.39416 | -58.76981 | 5464 ft | 261 kts | 14° |
| 2026-04-25 22:46 | -34.37854 | -58.75900 | 5168 ft | 263 kts | 44° |
| 2026-04-25 22:46 | -34.36923 | -58.74019 | 4908 ft | 264 kts | 72° |
| 2026-04-25 22:47 | -34.36835 | -58.71825 | 4676 ft | 263 kts | 101° |
| 2026-04-25 22:47 | -34.37571 | -58.69848 | 4449 ft | 264 kts | 125° |
| 2026-04-25 22:47 | -34.38792 | -58.68185 | 4222 ft | 265 kts | 133° |
| 2026-04-25 22:47 | -34.40094 | -58.66622 | 3983 ft | 263 kts | 134° |
| 2026-04-25 22:48 | -34.41377 | -58.65073 | 3751 ft | 256 kts | 133° |
| 2026-04-25 22:48 | -34.42609 | -58.63564 | 3528 ft | 248 kts | 133° |
| 2026-04-25 22:48 | -34.43799 | -58.62096 | 3331 ft | 239 kts | 132° |
| 2026-04-25 22:48 | -34.44928 | -58.60697 | 3145 ft | 225 kts | 132° |
| 2026-04-25 22:49 | -34.45964 | -58.59379 | 2981 ft | 205 kts | 128° |
| 2026-04-25 22:49 | -34.46780 | -58.58077 | 2890 ft | 190 kts | 122° |
| 2026-04-25 22:49 | -34.47503 | -58.56783 | 2660 ft | 181 kts | 121° |
| 2026-04-25 22:49 | -34.48180 | -58.55555 | 2436 ft | 170 kts | 121° |
| 2026-04-25 22:50 | -34.48809 | -58.54420 | 2232 ft | 156 kts | 120° |
| 2026-04-25 22:50 | -34.49396 | -58.53359 | 2021 ft | 150 kts | 120° |
| 2026-04-25 22:50 | -34.49982 | -58.52299 | 1831 ft | 152 kts | 121° |
| 2026-04-25 22:50 | -34.50575 | -58.51228 | 1621 ft | 153 kts | 121° |
| 2026-04-25 22:51 | -34.51165 | -58.50164 | 1438 ft | 150 kts | 121° |
| 2026-04-25 22:51 | -34.51736 | -58.49135 | 1248 ft | 148 kts | 121° |
| 2026-04-25 22:51 | -34.52312 | -58.48094 | 1057 ft | 148 kts | 122° |
| 2026-04-25 22:51 | -34.52886 | -58.47059 | 866 ft | 146 kts | 123° |
| 2026-04-25 22:52 | -34.53437 | -58.46045 | 691 ft | 145 kts | 123° |
| 2026-04-25 22:52 | -34.53999 | -58.45024 | 531 ft | 146 kts | 126° |
| 2026-04-25 22:52 | -34.54575 | -58.43997 | 362 ft | 149 kts | 126° |
| 2026-04-25 22:52 | -34.55156 | -58.42953 | 155 ft | 150 kts | 126° |
| 2026-04-25 22:53 | -34.55733 | -58.41917 | 26 ft | 141 kts | 126° |
| 2026-04-25 22:53 | -34.56171 | -58.41137 | 27 ft | 81 kts | 124° |
| 2026-04-25 22:53 | -34.56376 | -58.40771 | 26 ft | 29 kts | 124° |
| 2026-04-25 22:53 | -34.56389 | -58.40668 | 27 ft | 9 kts | 36° |
| 2026-04-25 22:54 | -34.56342 | -58.40679 | 27 ft | 7 kts | 323° |
| 2026-04-25 22:54 | -34.56305 | -58.40716 | 26 ft | 7 kts | 319° |
| 2026-04-25 22:54 | -34.56271 | -58.40753 | 28 ft | 7 kts | 319° |
| 2026-04-25 22:54 | -34.56237 | -58.40790 | 25 ft | 6 kts | 318° |
| 2026-04-25 22:55 | -34.56204 | -58.40826 | 26 ft | 6 kts | 315° |
| 2026-04-25 22:55 | -34.56177 | -58.40868 | 25 ft | 6 kts | 303° |
| 2026-04-25 22:55 | -34.56158 | -58.40914 | 25 ft | 6 kts | 297° |
| 2026-04-25 22:55 | -34.56131 | -58.40967 | 28 ft | 8 kts | 304° |
| 2026-04-25 22:56 | -34.56094 | -58.41031 | 26 ft | 10 kts | 308° |
| 2026-04-25 22:56 | -34.56038 | -58.41058 | 28 ft | 9 kts | 8° |
| 2026-04-25 22:56 | -34.55977 | -58.41076 | 26 ft | 9 kts | 325° |
| 2026-04-25 22:56 | -34.55942 | -58.41119 | 26 ft | 6 kts | 312° |
| 2026-04-25 22:57 | -34.55915 | -58.41154 | 25 ft | 6 kts | 312° |
| 2026-04-25 22:57 | -34.55890 | -58.41188 | 25 ft | 5 kts | 310° |
| 2026-04-25 22:57 | -34.55864 | -58.41229 | 25 ft | 7 kts | 307° |
| 2026-04-25 22:57 | -34.55855 | -58.41288 | 25 ft | 4 kts | 265° |
| 2026-04-25 22:58 | -34.55858 | -58.41323 | 25 ft | 3 kts | 265° |
| 2026-04-25 22:58 | -34.55858 | -58.41337 | 24 ft | 0 kts | 265° |